sensor_id;sensor_type;location;lat;lon;timestamp;pressure;altitude;pressure_sealevel;temperature;humidity
35507;BME280;36461;52.018;21.036;2023-04-01T00:01:15;98361.55;;;9.57;89.09
35507;BME280;36461;52.018;21.036;2023-04-01T00:03:44;98355.86;;;9.48;88.98
35507;BME280;36461;52.018;21.036;2023-04-01T00:06:15;98353.52;;;9.41;89.01
35507;BME280;36461;52.018;21.036;2023-04-01T00:08:44;98355.27;;;9.35;89.09
35507;BME280;36461;52.018;21.036;2023-04-01T00:11:13;98356.32;;;9.29;89.23
35507;BME280;36461;52.018;21.036;2023-04-01T00:13:41;98360.23;;;9.24;89.06
35507;BME280;36461;52.018;21.036;2023-04-01T00:16:10;98364.09;;;9.20;89.43
35507;BME280;36461;52.018;21.036;2023-04-01T00:18:50;98372.47;;;9.16;89.19
35507;BME280;36461;52.018;21.036;2023-04-01T00:21:20;98365.98;;;9.12;89.41
35507;BME280;36461;52.018;21.036;2023-04-01T00:23:49;98365.69;;;9.05;89.59
35507;BME280;36461;52.018;21.036;2023-04-01T00:26:18;98363.09;;;9.02;89.91
35507;BME280;36461;52.018;21.036;2023-04-01T00:28:49;98359.59;;;9.00;89.84
35507;BME280;36461;52.018;21.036;2023-04-01T00:31:19;98357.99;;;8.95;89.75
35507;BME280;36461;52.018;21.036;2023-04-01T00:33:47;98358.38;;;8.91;89.86
35507;BME280;36461;52.018;21.036;2023-04-01T00:36:18;98353.92;;;8.90;90.01
35507;BME280;36461;52.018;21.036;2023-04-01T00:38:47;98354.63;;;8.87;89.79
35507;BME280;36461;52.018;21.036;2023-04-01T00:41:16;98354.50;;;8.89;90.33
35507;BME280;36461;52.018;21.036;2023-04-01T00:43:49;98355.61;;;8.91;90.49
35507;BME280;36461;52.018;21.036;2023-04-01T00:46:19;98353.17;;;8.95;90.58
35507;BME280;36461;52.018;21.036;2023-04-01T00:48:52;98351.74;;;8.95;90.86
35507;BME280;36461;52.018;21.036;2023-04-01T00:51:24;98346.89;;;8.98;90.98
35507;BME280;36461;52.018;21.036;2023-04-01T00:53:56;98347.73;;;8.99;90.79
35507;BME280;36461;52.018;21.036;2023-04-01T00:56:30;98349.81;;;8.99;90.43
35507;BME280;36461;52.018;21.036;2023-04-01T00:59:02;98346.61;;;8.94;90.24
35507;BME280;36461;52.018;21.036;2023-04-01T01:01:32;98348.15;;;8.86;90.13
35507;BME280;36461;52.018;21.036;2023-04-01T01:04:02;98349.45;;;8.81;90.45
35507;BME280;36461;52.018;21.036;2023-04-01T01:06:45;98352.01;;;8.82;90.84
35507;BME280;36461;52.018;21.036;2023-04-01T01:13:10;98351.10;;;8.77;90.89
35507;BME280;36461;52.018;21.036;2023-04-01T01:15:23;98349.95;;;8.75;90.74
35507;BME280;36461;52.018;21.036;2023-04-01T01:18:04;98350.91;;;8.73;90.96
35507;BME280;36461;52.018;21.036;2023-04-01T01:37:17;98357.52;;;8.84;91.43
35507;BME280;36461;52.018;21.036;2023-04-01T01:40:03;98358.92;;;8.87;91.45
35507;BME280;36461;52.018;21.036;2023-04-01T01:42:38;98356.55;;;8.93;91.21
35507;BME280;36461;52.018;21.036;2023-04-01T01:45:08;98352.80;;;8.95;91.15
35507;BME280;36461;52.018;21.036;2023-04-01T01:47:39;98351.39;;;8.98;91.18
35507;BME280;36461;52.018;21.036;2023-04-01T01:50:10;98348.16;;;9.01;91.34
35507;BME280;36461;52.018;21.036;2023-04-01T01:52:39;98344.20;;;9.03;91.39
35507;BME280;36461;52.018;21.036;2023-04-01T01:55:30;98345.22;;;9.04;91.31
35507;BME280;36461;52.018;21.036;2023-04-01T01:58:03;98333.70;;;9.03;91.31
35507;BME280;36461;52.018;21.036;2023-04-01T02:00:33;98336.83;;;9.02;91.30
35507;BME280;36461;52.018;21.036;2023-04-01T02:03:03;98331.49;;;8.99;91.05
35507;BME280;36461;52.018;21.036;2023-04-01T02:05:32;98325.46;;;8.96;91.00
35507;BME280;36461;52.018;21.036;2023-04-01T02:08:16;98322.59;;;8.95;90.86
35507;BME280;36461;52.018;21.036;2023-04-01T02:10:55;98322.30;;;8.97;91.05
35507;BME280;36461;52.018;21.036;2023-04-01T02:13:31;98322.73;;;8.99;90.81
35507;BME280;36461;52.018;21.036;2023-04-01T02:16:06;98321.17;;;8.99;91.17
35507;BME280;36461;52.018;21.036;2023-04-01T02:18:37;98321.04;;;8.98;91.04
35507;BME280;36461;52.018;21.036;2023-04-01T02:21:07;98320.48;;;8.96;90.91
35507;BME280;36461;52.018;21.036;2023-04-01T02:23:37;98326.56;;;8.92;90.99
35507;BME280;36461;52.018;21.036;2023-04-01T02:26:08;98320.16;;;8.89;90.87
35507;BME280;36461;52.018;21.036;2023-04-01T02:28:38;98313.31;;;8.88;91.12
35507;BME280;36461;52.018;21.036;2023-04-01T02:31:09;98316.17;;;8.90;91.16
35507;BME280;36461;52.018;21.036;2023-04-01T02:33:38;98317.02;;;8.87;90.83
35507;BME280;36461;52.018;21.036;2023-04-01T02:36:12;98316.73;;;8.80;90.56
35507;BME280;36461;52.018;21.036;2023-04-01T02:38:43;98321.23;;;8.71;90.35
35507;BME280;36461;52.018;21.036;2023-04-01T02:41:12;98318.74;;;8.63;90.34
35507;BME280;36461;52.018;21.036;2023-04-01T02:43:40;98315.08;;;8.52;90.25
35507;BME280;36461;52.018;21.036;2023-04-01T02:46:08;98313.98;;;8.40;90.33
35507;BME280;36461;52.018;21.036;2023-04-01T02:48:36;98308.88;;;8.27;90.31
35507;BME280;36461;52.018;21.036;2023-04-01T02:51:05;98311.63;;;8.17;90.50
35507;BME280;36461;52.018;21.036;2023-04-01T02:53:33;98318.64;;;8.12;90.48
35507;BME280;36461;52.018;21.036;2023-04-01T02:56:01;98317.50;;;8.05;90.48
35507;BME280;36461;52.018;21.036;2023-04-01T02:58:29;98312.94;;;8.00;90.81
35507;BME280;36461;52.018;21.036;2023-04-01T03:00:57;98319.44;;;8.01;91.23
35507;BME280;36461;52.018;21.036;2023-04-01T03:03:25;98321.23;;;8.00;91.21
35507;BME280;36461;52.018;21.036;2023-04-01T03:05:54;98327.02;;;7.97;91.34
35507;BME280;36461;52.018;21.036;2023-04-01T03:08:24;98329.38;;;7.99;91.74
35507;BME280;36461;52.018;21.036;2023-04-01T03:10:52;98333.30;;;7.99;91.70
35507;BME280;36461;52.018;21.036;2023-04-01T03:13:20;98340.15;;;7.97;91.50
35507;BME280;36461;52.018;21.036;2023-04-01T03:15:48;98339.02;;;7.92;91.41
35507;BME280;36461;52.018;21.036;2023-04-01T03:18:16;98339.13;;;7.87;91.35
35507;BME280;36461;52.018;21.036;2023-04-01T03:20:45;98341.55;;;7.83;91.51
35507;BME280;36461;52.018;21.036;2023-04-01T03:23:13;98345.48;;;7.81;91.33
35507;BME280;36461;52.018;21.036;2023-04-01T03:25:42;98346.36;;;7.77;91.54
35507;BME280;36461;52.018;21.036;2023-04-01T03:28:11;98349.38;;;7.72;91.71
35507;BME280;36461;52.018;21.036;2023-04-01T03:30:40;98344.00;;;7.66;91.83
35507;BME280;36461;52.018;21.036;2023-04-01T03:33:10;98350.47;;;7.65;92.09
35507;BME280;36461;52.018;21.036;2023-04-01T03:35:38;98355.77;;;7.65;92.27
35507;BME280;36461;52.018;21.036;2023-04-01T03:38:07;98355.52;;;7.67;92.41
35507;BME280;36461;52.018;21.036;2023-04-01T03:40:35;98357.10;;;7.73;92.82
35507;BME280;36461;52.018;21.036;2023-04-01T03:43:06;98364.61;;;7.81;92.95
35507;BME280;36461;52.018;21.036;2023-04-01T03:45:49;98365.11;;;7.87;93.09
35507;BME280;36461;52.018;21.036;2023-04-01T03:48:18;98363.10;;;7.93;93.16
35507;BME280;36461;52.018;21.036;2023-04-01T03:50:47;98361.91;;;7.99;93.38
35507;BME280;36461;52.018;21.036;2023-04-01T03:53:15;98362.30;;;8.01;93.36
35507;BME280;36461;52.018;21.036;2023-04-01T03:55:43;98360.27;;;8.00;93.15
35507;BME280;36461;52.018;21.036;2023-04-01T03:58:11;98363.55;;;8.00;93.17
35507;BME280;36461;52.018;21.036;2023-04-01T04:00:40;98364.73;;;8.01;93.03
35507;BME280;36461;52.018;21.036;2023-04-01T04:03:09;98368.43;;;8.00;93.00
35507;BME280;36461;52.018;21.036;2023-04-01T04:05:40;98371.42;;;7.98;93.10
35507;BME280;36461;52.018;21.036;2023-04-01T04:08:13;98370.02;;;7.99;93.36
35507;BME280;36461;52.018;21.036;2023-04-01T04:10:41;98372.55;;;8.03;93.52
35507;BME280;36461;52.018;21.036;2023-04-01T04:13:10;98371.71;;;8.05;93.66
35507;BME280;36461;52.018;21.036;2023-04-01T04:15:42;98377.47;;;8.08;93.77
35507;BME280;36461;52.018;21.036;2023-04-01T04:18:11;98377.27;;;8.08;93.70
35507;BME280;36461;52.018;21.036;2023-04-01T04:20:46;98378.67;;;8.11;93.61
35507;BME280;36461;52.018;21.036;2023-04-01T04:23:19;98387.63;;;8.14;93.58
35507;BME280;36461;52.018;21.036;2023-04-01T04:25:59;98390.42;;;8.16;93.78
35507;BME280;36461;52.018;21.036;2023-04-01T04:28:28;98391.97;;;8.19;93.64
35507;BME280;36461;52.018;21.036;2023-04-01T04:30:58;98390.16;;;8.21;93.82
35507;BME280;36461;52.018;21.036;2023-04-01T04:33:26;98394.30;;;8.24;93.91
35507;BME280;36461;52.018;21.036;2023-04-01T04:35:56;98393.60;;;8.28;93.97
35507;BME280;36461;52.018;21.036;2023-04-01T04:38:25;98389.55;;;8.29;93.78
35507;BME280;36461;52.018;21.036;2023-04-01T04:40:55;98395.84;;;8.34;93.87
35507;BME280;36461;52.018;21.036;2023-04-01T04:43:23;98391.61;;;8.39;93.85
35507;BME280;36461;52.018;21.036;2023-04-01T04:45:51;98397.59;;;8.46;93.82
35507;BME280;36461;52.018;21.036;2023-04-01T04:48:19;98399.46;;;8.56;93.97
35507;BME280;36461;52.018;21.036;2023-04-01T04:50:50;98397.95;;;8.68;93.80
35507;BME280;36461;52.018;21.036;2023-04-01T04:53:19;98395.04;;;8.74;93.78
35507;BME280;36461;52.018;21.036;2023-04-01T04:55:49;98396.95;;;8.80;93.58
35507;BME280;36461;52.018;21.036;2023-04-01T04:58:25;98401.92;;;8.89;93.97
35507;BME280;36461;52.018;21.036;2023-04-01T05:00:54;98404.98;;;8.97;93.76
35507;BME280;36461;52.018;21.036;2023-04-01T05:03:27;98405.15;;;8.99;93.60
35507;BME280;36461;52.018;21.036;2023-04-01T05:05:56;98404.39;;;9.04;93.42
35507;BME280;36461;52.018;21.036;2023-04-01T05:08:24;98407.86;;;9.10;93.38
35507;BME280;36461;52.018;21.036;2023-04-01T05:10:53;98405.09;;;9.16;93.61
35507;BME280;36461;52.018;21.036;2023-04-01T05:13:21;98405.84;;;9.23;93.66
35507;BME280;36461;52.018;21.036;2023-04-01T05:15:49;98405.19;;;9.29;93.32
35507;BME280;36461;52.018;21.036;2023-04-01T05:18:17;98404.38;;;9.31;93.36
35507;BME280;36461;52.018;21.036;2023-04-01T05:20:50;98407.91;;;9.32;93.55
35507;BME280;36461;52.018;21.036;2023-04-01T05:23:20;98409.99;;;9.32;93.32
35507;BME280;36461;52.018;21.036;2023-04-01T05:25:49;98408.95;;;9.33;93.21
35507;BME280;36461;52.018;21.036;2023-04-01T05:28:19;98409.19;;;9.34;93.16
35507;BME280;36461;52.018;21.036;2023-04-01T05:30:48;98410.83;;;9.38;93.10
35507;BME280;36461;52.018;21.036;2023-04-01T05:33:25;98408.19;;;9.49;93.24
35507;BME280;36461;52.018;21.036;2023-04-01T05:35:54;98406.33;;;9.62;93.42
35507;BME280;36461;52.018;21.036;2023-04-01T05:38:22;98404.56;;;9.83;93.37
35507;BME280;36461;52.018;21.036;2023-04-01T05:40:50;98404.35;;;10.01;93.27
35507;BME280;36461;52.018;21.036;2023-04-01T05:43:19;98402.09;;;10.06;92.65
35507;BME280;36461;52.018;21.036;2023-04-01T05:45:48;98406.26;;;10.03;91.97
35507;BME280;36461;52.018;21.036;2023-04-01T05:48:47;98410.05;;;9.98;91.42
35507;BME280;36461;52.018;21.036;2023-04-01T05:51:16;98414.41;;;10.00;91.75
35507;BME280;36461;52.018;21.036;2023-04-01T05:53:44;98412.59;;;10.10;91.77
35507;BME280;36461;52.018;21.036;2023-04-01T05:56:13;98415.06;;;10.23;91.68
35507;BME280;36461;52.018;21.036;2023-04-01T05:58:51;98417.48;;;10.32;91.69
35507;BME280;36461;52.018;21.036;2023-04-01T06:01:21;98417.08;;;10.36;91.41
35507;BME280;36461;52.018;21.036;2023-04-01T06:03:49;98418.80;;;10.41;91.05
35507;BME280;36461;52.018;21.036;2023-04-01T06:06:27;98417.48;;;10.49;91.11
35507;BME280;36461;52.018;21.036;2023-04-01T06:09:32;98419.45;;;10.75;91.69
35507;BME280;36461;52.018;21.036;2023-04-01T06:25:45;98421.96;;;11.55;89.93
35507;BME280;36461;52.018;21.036;2023-04-01T06:45:04;98415.64;;;11.84;87.59
35507;BME280;36461;52.018;21.036;2023-04-01T06:49:17;98412.73;;;11.89;87.34
35507;BME280;36461;52.018;21.036;2023-04-01T06:54:57;98414.98;;;12.12;86.27
35507;BME280;36461;52.018;21.036;2023-04-01T06:57:56;98404.86;;;12.23;86.13
35507;BME280;36461;52.018;21.036;2023-04-01T07:03:20;98406.20;;;12.46;84.87
35507;BME280;36461;52.018;21.036;2023-04-01T07:05:49;98410.73;;;12.43;84.98
35507;BME280;36461;52.018;21.036;2023-04-01T07:08:24;98415.31;;;12.44;84.94
35507;BME280;36461;52.018;21.036;2023-04-01T07:11:06;98418.77;;;12.47;84.48
35507;BME280;36461;52.018;21.036;2023-04-01T07:13:57;98422.41;;;12.52;84.06
35507;BME280;36461;52.018;21.036;2023-04-01T07:16:34;98423.14;;;12.54;83.82
35507;BME280;36461;52.018;21.036;2023-04-01T07:22:43;98420.04;;;12.94;82.99
35507;BME280;36461;52.018;21.036;2023-04-01T07:25:18;98414.92;;;13.17;82.12
35507;BME280;36461;52.018;21.036;2023-04-01T07:28:00;98412.70;;;13.16;81.06
35507;BME280;36461;52.018;21.036;2023-04-01T07:30:45;98413.30;;;13.27;81.13
35507;BME280;36461;52.018;21.036;2023-04-01T07:33:20;98415.14;;;13.49;81.15
35507;BME280;36461;52.018;21.036;2023-04-01T07:39:03;98409.60;;;13.49;79.92
35507;BME280;36461;52.018;21.036;2023-04-01T07:42:09;98411.89;;;13.49;79.96
35507;BME280;36461;52.018;21.036;2023-04-01T07:45:01;98407.77;;;13.61;79.67
35507;BME280;36461;52.018;21.036;2023-04-01T07:50:32;98412.61;;;14.30;79.16
35507;BME280;36461;52.018;21.036;2023-04-01T07:58:53;98419.30;;;14.40;76.79
35507;BME280;36461;52.018;21.036;2023-04-01T08:01:45;98416.96;;;13.91;75.99
35507;BME280;36461;52.018;21.036;2023-04-01T08:07:06;98424.80;;;13.41;76.18
35507;BME280;36461;52.018;21.036;2023-04-01T08:21:46;98436.50;;;13.28;76.82
35507;BME280;36461;52.018;21.036;2023-04-01T08:24:52;98438.84;;;13.59;76.59
35507;BME280;36461;52.018;21.036;2023-04-01T08:30:55;98439.98;;;14.53;76.18
35507;BME280;36461;52.018;21.036;2023-04-01T08:33:24;98444.46;;;14.76;75.34
35507;BME280;36461;52.018;21.036;2023-04-01T08:36:23;98445.41;;;14.75;73.76
35507;BME280;36461;52.018;21.036;2023-04-01T08:39:20;98445.56;;;14.46;73.66
35507;BME280;36461;52.018;21.036;2023-04-01T08:45:21;98446.27;;;14.29;73.56
35507;BME280;36461;52.018;21.036;2023-04-01T08:56:41;98455.61;;;14.22;73.32
35507;BME280;36461;52.018;21.036;2023-04-01T08:59:22;98453.77;;;14.31;73.23
35507;BME280;36461;52.018;21.036;2023-04-01T09:02:13;98452.56;;;14.35;72.88
35507;BME280;36461;52.018;21.036;2023-04-01T09:36:03;98452.94;;;14.30;69.32
35507;BME280;36461;52.018;21.036;2023-04-01T09:42:29;98450.04;;;14.14;69.72
35507;BME280;36461;52.018;21.036;2023-04-01T10:04:46;98461.55;;;12.77;71.93
35507;BME280;36461;52.018;21.036;2023-04-01T10:10:29;98479.44;;;12.58;72.76
35507;BME280;36461;52.018;21.036;2023-04-01T10:13:11;98480.55;;;12.49;73.43
35507;BME280;36461;52.018;21.036;2023-04-01T10:38:26;98482.89;;;12.82;75.48
35507;BME280;36461;52.018;21.036;2023-04-01T11:16:50;98486.92;;;13.63;73.31
35507;BME280;36461;52.018;21.036;2023-04-01T11:19:34;98489.20;;;13.34;73.63
35507;BME280;36461;52.018;21.036;2023-04-01T11:22:24;98491.35;;;13.09;74.03
35507;BME280;36461;52.018;21.036;2023-04-01T11:33:25;98494.78;;;12.49;75.77
35507;BME280;36461;52.018;21.036;2023-04-01T11:56:32;98498.42;;;12.54;77.09
35507;BME280;36461;52.018;21.036;2023-04-01T11:59:08;98501.46;;;12.82;77.23
35507;BME280;36461;52.018;21.036;2023-04-01T12:04:38;98508.20;;;13.16;76.75
35507;BME280;36461;52.018;21.036;2023-04-01T12:22:09;98517.20;;;13.17;75.30
35507;BME280;36461;52.018;21.036;2023-04-01T12:30:35;98513.42;;;13.43;75.21
35507;BME280;36461;52.018;21.036;2023-04-01T12:34:00;98515.60;;;13.63;74.96
35507;BME280;36461;52.018;21.036;2023-04-01T12:44:42;98513.44;;;14.19;74.32
35507;BME280;36461;52.018;21.036;2023-04-01T12:47:36;98509.61;;;14.24;73.92
35507;BME280;36461;52.018;21.036;2023-04-01T12:55:42;98508.36;;;14.65;73.78
35507;BME280;36461;52.018;21.036;2023-04-01T13:13:14;98519.23;;;14.88;71.10
35507;BME280;36461;52.018;21.036;2023-04-01T13:18:03;98529.60;;;14.79;71.08
35507;BME280;36461;52.018;21.036;2023-04-01T13:20:43;98530.02;;;14.84;70.93
35507;BME280;36461;52.018;21.036;2023-04-01T13:34:42;98544.03;;;14.89;67.97
35507;BME280;36461;52.018;21.036;2023-04-01T13:40:26;98542.89;;;14.93;68.34
35507;BME280;36461;52.018;21.036;2023-04-01T13:43:12;98542.42;;;15.01;67.93
35507;BME280;36461;52.018;21.036;2023-04-01T13:56:34;98545.30;;;14.46;67.35
35507;BME280;36461;52.018;21.036;2023-04-01T13:59:40;98546.63;;;14.38;67.56
35507;BME280;36461;52.018;21.036;2023-04-01T14:08:33;98552.52;;;13.83;67.89
35507;BME280;36461;52.018;21.036;2023-04-01T14:11:16;98549.09;;;13.78;67.92
35507;BME280;36461;52.018;21.036;2023-04-01T14:17:27;98544.66;;;13.83;69.25
35507;BME280;36461;52.018;21.036;2023-04-01T14:31:23;98552.45;;;14.43;67.81
35507;BME280;36461;52.018;21.036;2023-04-01T14:45:55;98576.30;;;13.91;67.60
35507;BME280;36461;52.018;21.036;2023-04-01T14:51:13;98589.31;;;13.19;68.07
35507;BME280;36461;52.018;21.036;2023-04-01T14:54:02;98598.08;;;12.63;68.88
35507;BME280;36461;52.018;21.036;2023-04-01T14:57:12;98605.70;;;12.36;70.41
35507;BME280;36461;52.018;21.036;2023-04-01T14:59:51;98612.04;;;12.09;73.43
35507;BME280;36461;52.018;21.036;2023-04-01T15:13:34;98618.73;;;11.26;79.16
35507;BME280;36461;52.018;21.036;2023-04-01T15:21:57;98619.01;;;11.35;81.36
35507;BME280;36461;52.018;21.036;2023-04-01T15:24:46;98629.08;;;11.29;81.24
35507;BME280;36461;52.018;21.036;2023-04-01T15:27:51;98636.07;;;11.25;81.42
35507;BME280;36461;52.018;21.036;2023-04-01T15:33:14;98647.02;;;11.25;81.81
35507;BME280;36461;52.018;21.036;2023-04-01T15:38:43;98649.16;;;11.23;82.20
35507;BME280;36461;52.018;21.036;2023-04-01T15:41:39;98653.27;;;11.21;82.36
35507;BME280;36461;52.018;21.036;2023-04-01T15:44:40;98656.99;;;11.20;82.24
35507;BME280;36461;52.018;21.036;2023-04-01T15:52:43;98671.43;;;11.05;82.22
35507;BME280;36461;52.018;21.036;2023-04-01T16:01:01;98684.80;;;10.93;81.63
35507;BME280;36461;52.018;21.036;2023-04-01T16:03:40;98688.61;;;10.84;81.42
35507;BME280;36461;52.018;21.036;2023-04-01T16:06:42;98695.05;;;10.75;81.13
35507;BME280;36461;52.018;21.036;2023-04-01T16:09:36;98699.80;;;10.71;81.24
35507;BME280;36461;52.018;21.036;2023-04-01T16:15:27;98718.65;;;10.53;80.95
35507;BME280;36461;52.018;21.036;2023-04-01T16:21:12;98724.73;;;10.35;81.26
35507;BME280;36461;52.018;21.036;2023-04-01T16:23:56;98730.29;;;10.28;81.16
35507;BME280;36461;52.018;21.036;2023-04-01T16:26:40;98734.01;;;10.27;81.43
35507;BME280;36461;52.018;21.036;2023-04-01T16:42:56;98753.40;;;10.17;82.07
35507;BME280;36461;52.018;21.036;2023-04-01T16:45:43;98759.10;;;10.17;82.06
35507;BME280;36461;52.018;21.036;2023-04-01T16:48:20;98767.13;;;10.12;82.21
35507;BME280;36461;52.018;21.036;2023-04-01T16:51:00;98769.45;;;10.08;82.55
35507;BME280;36461;52.018;21.036;2023-04-01T16:53:47;98778.23;;;10.02;82.64
35507;BME280;36461;52.018;21.036;2023-04-01T16:56:36;98781.56;;;10.01;82.63
35507;BME280;36461;52.018;21.036;2023-04-01T17:07:25;98800.70;;;10.05;83.15
35507;BME280;36461;52.018;21.036;2023-04-01T17:13:03;98810.16;;;10.00;83.46
35507;BME280;36461;52.018;21.036;2023-04-01T17:15:39;98814.81;;;9.91;83.46
35507;BME280;36461;52.018;21.036;2023-04-01T17:21:10;98825.23;;;9.70;84.17
35507;BME280;36461;52.018;21.036;2023-04-01T17:30:28;98842.06;;;9.32;85.60
35507;BME280;36461;52.018;21.036;2023-04-01T17:35:16;98845.48;;;9.16;86.64
35507;BME280;36461;52.018;21.036;2023-04-01T17:38:09;98852.62;;;9.15;86.65
35507;BME280;36461;52.018;21.036;2023-04-01T17:40:53;98856.13;;;9.14;87.02
35507;BME280;36461;52.018;21.036;2023-04-01T17:46:54;98868.70;;;9.15;87.52
35507;BME280;36461;52.018;21.036;2023-04-01T17:49:12;98873.31;;;9.12;87.31
35507;BME280;36461;52.018;21.036;2023-04-01T17:54:41;98882.37;;;9.07;87.44
35507;BME280;36461;52.018;21.036;2023-04-01T18:06:16;98897.13;;;9.12;87.44
35507;BME280;36461;52.018;21.036;2023-04-01T18:09:09;98901.39;;;9.10;87.40
35507;BME280;36461;52.018;21.036;2023-04-01T18:17:33;98908.33;;;9.13;87.61
35507;BME280;36461;52.018;21.036;2023-04-01T18:20:28;98913.21;;;9.11;87.48
35507;BME280;36461;52.018;21.036;2023-04-01T18:23:47;98917.77;;;9.10;87.62
35507;BME280;36461;52.018;21.036;2023-04-01T18:26:04;98923.59;;;9.07;87.23
35507;BME280;36461;52.018;21.036;2023-04-01T18:28:38;98929.35;;;9.06;87.28
35507;BME280;36461;52.018;21.036;2023-04-01T18:31:17;98930.77;;;9.05;87.02
35507;BME280;36461;52.018;21.036;2023-04-01T18:39:18;98944.79;;;9.01;87.07
35507;BME280;36461;52.018;21.036;2023-04-01T18:50:39;98950.16;;;8.97;86.62
35507;BME280;36461;52.018;21.036;2023-04-01T18:56:05;98951.37;;;8.89;86.78
35507;BME280;36461;52.018;21.036;2023-04-01T18:59:11;98955.04;;;8.88;86.60
35507;BME280;36461;52.018;21.036;2023-04-01T19:04:47;98965.34;;;8.90;86.46
35507;BME280;36461;52.018;21.036;2023-04-01T19:15:41;98980.91;;;8.85;86.28
35507;BME280;36461;52.018;21.036;2023-04-01T19:26:42;99006.80;;;8.85;86.54
35507;BME280;36461;52.018;21.036;2023-04-01T19:32:15;99013.41;;;8.84;86.22
35507;BME280;36461;52.018;21.036;2023-04-01T19:34:57;99016.48;;;8.81;85.80
35507;BME280;36461;52.018;21.036;2023-04-01T19:40:45;99025.14;;;8.80;85.55
35507;BME280;36461;52.018;21.036;2023-04-01T19:43:38;99029.98;;;8.80;85.37
35507;BME280;36461;52.018;21.036;2023-04-01T19:49:11;99034.48;;;8.72;84.91
35507;BME280;36461;52.018;21.036;2023-04-01T20:00:34;99044.91;;;8.70;85.33
35507;BME280;36461;52.018;21.036;2023-04-01T20:08:32;99057.58;;;8.65;85.35
35507;BME280;36461;52.018;21.036;2023-04-01T20:13:56;99060.06;;;8.64;85.50
35507;BME280;36461;52.018;21.036;2023-04-01T20:17:01;99063.64;;;8.64;85.39
35507;BME280;36461;52.018;21.036;2023-04-01T20:22:08;99068.05;;;8.66;85.36
35507;BME280;36461;52.018;21.036;2023-04-01T20:24:45;99069.30;;;8.65;85.54
35507;BME280;36461;52.018;21.036;2023-04-01T20:27:22;99071.68;;;8.66;85.40
35507;BME280;36461;52.018;21.036;2023-04-01T20:44:49;99094.99;;;8.61;85.61
35507;BME280;36461;52.018;21.036;2023-04-01T21:04:43;99114.66;;;8.45;85.77
35507;BME280;36461;52.018;21.036;2023-04-01T21:08:10;99118.67;;;8.43;85.65
35507;BME280;36461;52.018;21.036;2023-04-01T21:10:44;99126.59;;;8.44;85.69
35507;BME280;36461;52.018;21.036;2023-04-01T21:31:21;99159.06;;;8.31;86.01
35507;BME280;36461;52.018;21.036;2023-04-01T21:39:46;99163.98;;;8.15;86.34
35507;BME280;36461;52.018;21.036;2023-04-01T21:43:05;99169.19;;;8.11;86.61
35507;BME280;36461;52.018;21.036;2023-04-01T22:02:03;99193.02;;;7.92;87.38
35507;BME280;36461;52.018;21.036;2023-04-01T22:04:48;99195.16;;;7.90;87.21
35507;BME280;36461;52.018;21.036;2023-04-01T22:07:25;99195.00;;;7.90;87.07
35507;BME280;36461;52.018;21.036;2023-04-01T22:10:29;99196.25;;;7.89;87.46
35507;BME280;36461;52.018;21.036;2023-04-01T22:13:31;99193.63;;;7.86;87.19
35507;BME280;36461;52.018;21.036;2023-04-01T22:18:46;99195.65;;;7.87;87.27
35507;BME280;36461;52.018;21.036;2023-04-01T22:21:32;99197.30;;;7.88;87.31
35507;BME280;36461;52.018;21.036;2023-04-01T22:24:07;99203.16;;;7.88;87.26
35507;BME280;36461;52.018;21.036;2023-04-01T22:30:06;99205.67;;;7.90;87.38
35507;BME280;36461;52.018;21.036;2023-04-01T22:32:41;99212.26;;;7.89;87.33
35507;BME280;36461;52.018;21.036;2023-04-01T22:38:06;99218.96;;;7.77;87.12
35507;BME280;36461;52.018;21.036;2023-04-01T22:41:05;99220.77;;;7.79;87.45
35507;BME280;36461;52.018;21.036;2023-04-01T22:43:38;99220.42;;;7.83;87.22
35507;BME280;36461;52.018;21.036;2023-04-01T22:48:48;99222.48;;;7.88;86.87
35507;BME280;36461;52.018;21.036;2023-04-01T22:51:26;99225.08;;;7.87;86.60
35507;BME280;36461;52.018;21.036;2023-04-01T22:54:04;99228.40;;;7.82;86.33
35507;BME280;36461;52.018;21.036;2023-04-01T22:56:39;99230.30;;;7.78;86.36
35507;BME280;36461;52.018;21.036;2023-04-01T22:59:14;99237.08;;;7.80;86.50
35507;BME280;36461;52.018;21.036;2023-04-01T23:01:53;99238.33;;;7.83;86.41
35507;BME280;36461;52.018;21.036;2023-04-01T23:04:24;99241.70;;;7.86;86.43
35507;BME280;36461;52.018;21.036;2023-04-01T23:07:02;99242.10;;;7.88;86.09
35507;BME280;36461;52.018;21.036;2023-04-01T23:09:33;99244.48;;;7.88;86.01
35507;BME280;36461;52.018;21.036;2023-04-01T23:12:29;99248.69;;;7.87;85.86
35507;BME280;36461;52.018;21.036;2023-04-01T23:14:59;99247.76;;;7.84;85.84
35507;BME280;36461;52.018;21.036;2023-04-01T23:22:47;99254.44;;;7.81;85.63
35507;BME280;36461;52.018;21.036;2023-04-01T23:25:36;99262.31;;;7.87;85.56
35507;BME280;36461;52.018;21.036;2023-04-01T23:40:35;99267.54;;;7.90;84.85
35507;BME280;36461;52.018;21.036;2023-04-01T23:43:13;99271.58;;;7.92;84.76
35507;BME280;36461;52.018;21.036;2023-04-01T23:45:41;99276.61;;;7.96;84.71
35507;BME280;36461;52.018;21.036;2023-04-01T23:52:52;99286.54;;;7.88;84.11
35507;BME280;36461;52.018;21.036;2023-04-01T23:55:25;99288.37;;;7.81;83.92
35507;BME280;36461;52.018;21.036;2023-04-01T23:58:06;99292.38;;;7.75;84.23
